sensor_id;sensor_type;location;lat;lon;timestamp;P1;durP1;ratioP1;P2;durP2;ratioP2
4957;SDS011;2494;51.872;9.688;2023-03-12T00:01:24;7.10;;;3.50;;
4957;SDS011;2494;51.872;9.688;2023-03-12T00:04:09;5.37;;;3.30;;
4957;SDS011;2494;51.872;9.688;2023-03-12T00:06:55;6.00;;;2.87;;
4957;SDS011;2494;51.872;9.688;2023-03-12T00:09:40;4.10;;;3.67;;
4957;SDS011;2494;51.872;9.688;2023-03-12T00:12:25;6.40;;;3.40;;
4957;SDS011;2494;51.872;9.688;2023-03-12T00:15:11;3.00;;;2.80;;
4957;SDS011;2494;51.872;9.688;2023-03-12T00:17:56;5.23;;;3.53;;
4957;SDS011;2494;51.872;9.688;2023-03-12T00:20:42;4.60;;;3.50;;
4957;SDS011;2494;51.872;9.688;2023-03-12T00:23:27;3.80;;;3.40;;
4957;SDS011;2494;51.872;9.688;2023-03-12T00:26:15;3.43;;;3.17;;
4957;SDS011;2494;51.872;9.688;2023-03-12T00:29:00;3.40;;;3.07;;
4957;SDS011;2494;51.872;9.688;2023-03-12T00:31:50;3.97;;;3.13;;
4957;SDS011;2494;51.872;9.688;2023-03-12T00:34:35;7.83;;;3.47;;
4957;SDS011;2494;51.872;9.688;2023-03-12T00:37:20;7.17;;;3.57;;
4957;SDS011;2494;51.872;9.688;2023-03-12T00:40:06;3.20;;;3.00;;
4957;SDS011;2494;51.872;9.688;2023-03-12T00:42:53;6.87;;;3.40;;
4957;SDS011;2494;51.872;9.688;2023-03-12T00:45:38;5.80;;;2.97;;
4957;SDS011;2494;51.872;9.688;2023-03-12T00:48:25;3.93;;;3.50;;
4957;SDS011;2494;51.872;9.688;2023-03-12T00:51:10;3.87;;;3.57;;
4957;SDS011;2494;51.872;9.688;2023-03-12T00:53:55;3.83;;;2.80;;
4957;SDS011;2494;51.872;9.688;2023-03-12T00:56:42;4.63;;;3.80;;
4957;SDS011;2494;51.872;9.688;2023-03-12T00:59:29;3.83;;;3.50;;
4957;SDS011;2494;51.872;9.688;2023-03-12T01:02:14;4.20;;;2.83;;
4957;SDS011;2494;51.872;9.688;2023-03-12T01:05:00;4.70;;;3.27;;
4957;SDS011;2494;51.872;9.688;2023-03-12T01:07:45;3.60;;;3.07;;
4957;SDS011;2494;51.872;9.688;2023-03-12T01:10:30;2.80;;;2.60;;
4957;SDS011;2494;51.872;9.688;2023-03-12T01:13:15;3.10;;;2.20;;
4957;SDS011;2494;51.872;9.688;2023-03-12T01:16:00;2.17;;;1.97;;
4957;SDS011;2494;51.872;9.688;2023-03-12T01:18:46;3.70;;;3.00;;
4957;SDS011;2494;51.872;9.688;2023-03-12T01:21:32;2.27;;;1.90;;
4957;SDS011;2494;51.872;9.688;2023-03-12T01:24:17;3.40;;;2.20;;
4957;SDS011;2494;51.872;9.688;2023-03-12T01:27:03;6.97;;;4.57;;
4957;SDS011;2494;51.872;9.688;2023-03-12T01:29:48;7.27;;;6.57;;
4957;SDS011;2494;51.872;9.688;2023-03-12T01:32:34;3.13;;;2.67;;
4957;SDS011;2494;51.872;9.688;2023-03-12T01:35:19;5.40;;;2.50;;
4957;SDS011;2494;51.872;9.688;2023-03-12T01:38:07;3.23;;;2.20;;
4957;SDS011;2494;51.872;9.688;2023-03-12T01:40:52;1.90;;;1.80;;
4957;SDS011;2494;51.872;9.688;2023-03-12T01:43:38;4.07;;;2.60;;
4957;SDS011;2494;51.872;9.688;2023-03-12T01:46:25;4.13;;;2.23;;
4957;SDS011;2494;51.872;9.688;2023-03-12T01:49:12;4.83;;;2.30;;
4957;SDS011;2494;51.872;9.688;2023-03-12T01:51:58;2.83;;;2.13;;
4957;SDS011;2494;51.872;9.688;2023-03-12T01:54:52;4.20;;;2.20;;
4957;SDS011;2494;51.872;9.688;2023-03-12T01:57:40;5.43;;;2.73;;
4957;SDS011;2494;51.872;9.688;2023-03-12T02:00:27;2.17;;;1.97;;
4957;SDS011;2494;51.872;9.688;2023-03-12T02:03:12;3.30;;;1.80;;
4957;SDS011;2494;51.872;9.688;2023-03-12T02:05:59;2.77;;;2.10;;
4957;SDS011;2494;51.872;9.688;2023-03-12T02:08:46;1.70;;;1.60;;
4957;SDS011;2494;51.872;9.688;2023-03-12T02:11:33;2.43;;;2.10;;
4957;SDS011;2494;51.872;9.688;2023-03-12T02:14:18;2.10;;;1.70;;
4957;SDS011;2494;51.872;9.688;2023-03-12T02:17:04;5.17;;;1.97;;
4957;SDS011;2494;51.872;9.688;2023-03-12T02:19:50;3.80;;;2.10;;
4957;SDS011;2494;51.872;9.688;2023-03-12T02:22:40;2.03;;;1.83;;
4957;SDS011;2494;51.872;9.688;2023-03-12T02:25:29;5.23;;;1.50;;
4957;SDS011;2494;51.872;9.688;2023-03-12T02:28:19;2.00;;;1.57;;
4957;SDS011;2494;51.872;9.688;2023-03-12T02:31:05;6.10;;;1.73;;
4957;SDS011;2494;51.872;9.688;2023-03-12T02:33:51;4.33;;;1.50;;
4957;SDS011;2494;51.872;9.688;2023-03-12T02:36:38;2.23;;;1.90;;
4957;SDS011;2494;51.872;9.688;2023-03-12T02:39:23;2.60;;;1.53;;
4957;SDS011;2494;51.872;9.688;2023-03-12T02:42:12;1.80;;;1.43;;
4957;SDS011;2494;51.872;9.688;2023-03-12T02:44:58;4.17;;;2.07;;
4957;SDS011;2494;51.872;9.688;2023-03-12T02:47:44;2.20;;;1.97;;
4957;SDS011;2494;51.872;9.688;2023-03-12T02:50:29;1.57;;;1.43;;
4957;SDS011;2494;51.872;9.688;2023-03-12T02:53:14;1.80;;;1.70;;
4957;SDS011;2494;51.872;9.688;2023-03-12T02:55:59;2.33;;;2.13;;
4957;SDS011;2494;51.872;9.688;2023-03-12T02:58:46;2.93;;;2.10;;
4957;SDS011;2494;51.872;9.688;2023-03-12T03:01:31;3.03;;;1.60;;
4957;SDS011;2494;51.872;9.688;2023-03-12T03:04:17;2.20;;;2.00;;
4957;SDS011;2494;51.872;9.688;2023-03-12T03:07:02;3.77;;;2.23;;
4957;SDS011;2494;51.872;9.688;2023-03-12T03:09:48;3.20;;;2.13;;
4957;SDS011;2494;51.872;9.688;2023-03-12T03:12:33;2.83;;;2.50;;
4957;SDS011;2494;51.872;9.688;2023-03-12T03:15:21;2.40;;;2.20;;
4957;SDS011;2494;51.872;9.688;2023-03-12T03:18:06;2.13;;;1.90;;
4957;SDS011;2494;51.872;9.688;2023-03-12T03:20:54;4.40;;;2.10;;
4957;SDS011;2494;51.872;9.688;2023-03-12T03:23:40;4.00;;;2.10;;
4957;SDS011;2494;51.872;9.688;2023-03-12T03:26:26;3.47;;;2.00;;
4957;SDS011;2494;51.872;9.688;2023-03-12T03:29:11;2.47;;;2.03;;
4957;SDS011;2494;51.872;9.688;2023-03-12T03:31:57;4.20;;;3.80;;
4957;SDS011;2494;51.872;9.688;2023-03-12T03:34:42;2.57;;;2.37;;
4957;SDS011;2494;51.872;9.688;2023-03-12T03:37:28;8.30;;;2.37;;
4957;SDS011;2494;51.872;9.688;2023-03-12T03:40:13;2.50;;;2.20;;
4957;SDS011;2494;51.872;9.688;2023-03-12T03:42:58;8.37;;;2.83;;
4957;SDS011;2494;51.872;9.688;2023-03-12T03:45:44;2.60;;;2.40;;
4957;SDS011;2494;51.872;9.688;2023-03-12T03:48:31;2.37;;;2.13;;
4957;SDS011;2494;51.872;9.688;2023-03-12T03:51:16;6.23;;;2.20;;
4957;SDS011;2494;51.872;9.688;2023-03-12T03:54:01;3.40;;;2.17;;
4957;SDS011;2494;51.872;9.688;2023-03-12T03:56:46;3.97;;;1.93;;
4957;SDS011;2494;51.872;9.688;2023-03-12T03:59:31;3.17;;;2.50;;
4957;SDS011;2494;51.872;9.688;2023-03-12T04:02:17;6.30;;;2.10;;
4957;SDS011;2494;51.872;9.688;2023-03-12T04:05:03;3.40;;;2.10;;
4957;SDS011;2494;51.872;9.688;2023-03-12T04:07:50;2.67;;;2.20;;
4957;SDS011;2494;51.872;9.688;2023-03-12T04:10:37;2.80;;;2.53;;
4957;SDS011;2494;51.872;9.688;2023-03-12T04:13:23;2.37;;;2.17;;
4957;SDS011;2494;51.872;9.688;2023-03-12T04:16:09;3.10;;;1.90;;
4957;SDS011;2494;51.872;9.688;2023-03-12T04:18:54;2.67;;;2.47;;
4957;SDS011;2494;51.872;9.688;2023-03-12T04:21:40;4.53;;;2.70;;
4957;SDS011;2494;51.872;9.688;2023-03-12T04:24:28;2.93;;;2.27;;
4957;SDS011;2494;51.872;9.688;2023-03-12T04:27:13;4.17;;;2.63;;
4957;SDS011;2494;51.872;9.688;2023-03-12T04:29:58;3.13;;;2.60;;
4957;SDS011;2494;51.872;9.688;2023-03-12T04:32:43;3.33;;;2.90;;
4957;SDS011;2494;51.872;9.688;2023-03-12T04:35:29;4.70;;;3.70;;
4957;SDS011;2494;51.872;9.688;2023-03-12T04:38:15;3.97;;;3.67;;
4957;SDS011;2494;51.872;9.688;2023-03-12T04:41:01;5.13;;;3.97;;
4957;SDS011;2494;51.872;9.688;2023-03-12T04:43:47;5.53;;;3.77;;
4957;SDS011;2494;51.872;9.688;2023-03-12T04:46:31;8.60;;;4.10;;
4957;SDS011;2494;51.872;9.688;2023-03-12T04:49:20;4.17;;;3.83;;
4957;SDS011;2494;51.872;9.688;2023-03-12T04:52:06;5.30;;;4.03;;
4957;SDS011;2494;51.872;9.688;2023-03-12T04:54:52;4.50;;;3.77;;
4957;SDS011;2494;51.872;9.688;2023-03-12T04:57:38;4.87;;;3.87;;
4957;SDS011;2494;51.872;9.688;2023-03-12T05:00:23;6.63;;;3.50;;
4957;SDS011;2494;51.872;9.688;2023-03-12T05:03:09;4.40;;;3.53;;
4957;SDS011;2494;51.872;9.688;2023-03-12T05:05:55;8.20;;;3.80;;
4957;SDS011;2494;51.872;9.688;2023-03-12T05:08:40;4.37;;;3.87;;
4957;SDS011;2494;51.872;9.688;2023-03-12T05:11:29;5.73;;;4.53;;
4957;SDS011;2494;51.872;9.688;2023-03-12T05:14:15;10.60;;;4.27;;
4957;SDS011;2494;51.872;9.688;2023-03-12T05:17:00;6.30;;;3.80;;
4957;SDS011;2494;51.872;9.688;2023-03-12T05:19:45;3.63;;;3.33;;
4957;SDS011;2494;51.872;9.688;2023-03-12T05:22:30;5.93;;;3.60;;
4957;SDS011;2494;51.872;9.688;2023-03-12T05:25:15;4.90;;;3.83;;
4957;SDS011;2494;51.872;9.688;2023-03-12T05:28:02;6.97;;;3.60;;
4957;SDS011;2494;51.872;9.688;2023-03-12T05:30:47;6.80;;;3.37;;
4957;SDS011;2494;51.872;9.688;2023-03-12T05:33:32;3.50;;;3.20;;
4957;SDS011;2494;51.872;9.688;2023-03-12T05:36:17;4.27;;;3.87;;
4957;SDS011;2494;51.872;9.688;2023-03-12T05:39:02;3.93;;;3.53;;
4957;SDS011;2494;51.872;9.688;2023-03-12T05:41:47;6.20;;;3.47;;
4957;SDS011;2494;51.872;9.688;2023-03-12T05:44:35;6.90;;;4.40;;
4957;SDS011;2494;51.872;9.688;2023-03-12T05:47:21;5.50;;;4.10;;
4957;SDS011;2494;51.872;9.688;2023-03-12T05:50:06;5.87;;;3.63;;
4957;SDS011;2494;51.872;9.688;2023-03-12T05:52:53;11.00;;;4.30;;
4957;SDS011;2494;51.872;9.688;2023-03-12T05:55:38;11.33;;;4.70;;
4957;SDS011;2494;51.872;9.688;2023-03-12T05:58:24;5.53;;;4.57;;
4957;SDS011;2494;51.872;9.688;2023-03-12T06:01:15;4.53;;;4.07;;
4957;SDS011;2494;51.872;9.688;2023-03-12T06:04:03;4.70;;;4.30;;
4957;SDS011;2494;51.872;9.688;2023-03-12T06:06:48;4.30;;;3.93;;
4957;SDS011;2494;51.872;9.688;2023-03-12T06:09:34;4.90;;;4.50;;
4957;SDS011;2494;51.872;9.688;2023-03-12T06:12:19;4.70;;;4.30;;
4957;SDS011;2494;51.872;9.688;2023-03-12T06:15:04;4.77;;;3.80;;
4957;SDS011;2494;51.872;9.688;2023-03-12T06:17:51;4.53;;;3.97;;
4957;SDS011;2494;51.872;9.688;2023-03-12T06:20:36;6.87;;;4.17;;
4957;SDS011;2494;51.872;9.688;2023-03-12T06:23:21;5.03;;;3.50;;
4957;SDS011;2494;51.872;9.688;2023-03-12T06:26:06;5.77;;;3.97;;
4957;SDS011;2494;51.872;9.688;2023-03-12T06:28:52;5.27;;;3.00;;
4957;SDS011;2494;51.872;9.688;2023-03-12T06:31:37;6.33;;;4.00;;
4957;SDS011;2494;51.872;9.688;2023-03-12T06:34:26;4.40;;;4.00;;
4957;SDS011;2494;51.872;9.688;2023-03-12T06:37:11;3.73;;;3.43;;
4957;SDS011;2494;51.872;9.688;2023-03-12T06:39:56;3.93;;;3.63;;
4957;SDS011;2494;51.872;9.688;2023-03-12T06:42:41;3.87;;;3.57;;
4957;SDS011;2494;51.872;9.688;2023-03-12T06:45:26;5.00;;;4.60;;
4957;SDS011;2494;51.872;9.688;2023-03-12T06:48:11;4.40;;;4.00;;
4957;SDS011;2494;51.872;9.688;2023-03-12T06:50:57;5.10;;;4.60;;
4957;SDS011;2494;51.872;9.688;2023-03-12T06:53:43;8.03;;;4.03;;
4957;SDS011;2494;51.872;9.688;2023-03-12T06:56:28;4.60;;;4.20;;
4957;SDS011;2494;51.872;9.688;2023-03-12T06:59:13;7.40;;;4.73;;
4957;SDS011;2494;51.872;9.688;2023-03-12T07:01:58;6.50;;;5.57;;
4957;SDS011;2494;51.872;9.688;2023-03-12T07:04:44;5.70;;;4.77;;
4957;SDS011;2494;51.872;9.688;2023-03-12T07:07:31;9.33;;;4.90;;
4957;SDS011;2494;51.872;9.688;2023-03-12T07:10:16;5.83;;;5.30;;
4957;SDS011;2494;51.872;9.688;2023-03-12T07:13:02;5.87;;;5.30;;
4957;SDS011;2494;51.872;9.688;2023-03-12T07:15:47;6.17;;;5.30;;
4957;SDS011;2494;51.872;9.688;2023-03-12T07:18:32;6.77;;;4.27;;
4957;SDS011;2494;51.872;9.688;2023-03-12T07:21:18;5.50;;;3.77;;
4957;SDS011;2494;51.872;9.688;2023-03-12T07:24:07;4.87;;;4.27;;
4957;SDS011;2494;51.872;9.688;2023-03-12T07:26:52;4.07;;;3.60;;
4957;SDS011;2494;51.872;9.688;2023-03-12T07:29:38;4.77;;;4.00;;
4957;SDS011;2494;51.872;9.688;2023-03-12T07:32:23;4.80;;;3.60;;
4957;SDS011;2494;51.872;9.688;2023-03-12T07:35:09;4.80;;;4.30;;
4957;SDS011;2494;51.872;9.688;2023-03-12T07:37:54;5.20;;;4.80;;
4957;SDS011;2494;51.872;9.688;2023-03-12T07:40:41;7.07;;;3.90;;
4957;SDS011;2494;51.872;9.688;2023-03-12T07:43:26;5.83;;;5.27;;
4957;SDS011;2494;51.872;9.688;2023-03-12T07:46:11;5.60;;;4.17;;
4957;SDS011;2494;51.872;9.688;2023-03-12T07:48:56;6.87;;;5.83;;
4957;SDS011;2494;51.872;9.688;2023-03-12T07:51:41;6.07;;;4.67;;
4957;SDS011;2494;51.872;9.688;2023-03-12T07:54:26;5.53;;;4.80;;
4957;SDS011;2494;51.872;9.688;2023-03-12T07:57:15;6.10;;;4.10;;
4957;SDS011;2494;51.872;9.688;2023-03-12T08:00:00;5.90;;;5.00;;
4957;SDS011;2494;51.872;9.688;2023-03-12T08:02:45;5.93;;;4.57;;
4957;SDS011;2494;51.872;9.688;2023-03-12T08:05:30;4.00;;;3.70;;
4957;SDS011;2494;51.872;9.688;2023-03-12T08:08:16;5.50;;;5.00;;
4957;SDS011;2494;51.872;9.688;2023-03-12T08:11:02;5.53;;;4.33;;
4957;SDS011;2494;51.872;9.688;2023-03-12T08:13:48;6.40;;;4.10;;
4957;SDS011;2494;51.872;9.688;2023-03-12T08:16:33;3.40;;;3.10;;
4957;SDS011;2494;51.872;9.688;2023-03-12T08:19:18;5.00;;;3.57;;
4957;SDS011;2494;51.872;9.688;2023-03-12T08:22:03;5.93;;;3.67;;
4957;SDS011;2494;51.872;9.688;2023-03-12T08:24:50;4.57;;;4.10;;
4957;SDS011;2494;51.872;9.688;2023-03-12T08:27:35;5.47;;;4.60;;
4957;SDS011;2494;51.872;9.688;2023-03-12T08:30:24;4.60;;;4.00;;
4957;SDS011;2494;51.872;9.688;2023-03-12T08:33:09;5.40;;;4.67;;
4957;SDS011;2494;51.872;9.688;2023-03-12T08:35:54;3.90;;;3.60;;
4957;SDS011;2494;51.872;9.688;2023-03-12T08:38:39;9.67;;;4.10;;
4957;SDS011;2494;51.872;9.688;2023-03-12T08:41:24;5.13;;;3.90;;
4957;SDS011;2494;51.872;9.688;2023-03-12T08:44:09;4.17;;;3.50;;
4957;SDS011;2494;51.872;9.688;2023-03-12T08:46:56;4.80;;;4.50;;
4957;SDS011;2494;51.872;9.688;2023-03-12T08:49:41;6.97;;;3.87;;
4957;SDS011;2494;51.872;9.688;2023-03-12T08:52:26;4.93;;;4.53;;
4957;SDS011;2494;51.872;9.688;2023-03-12T08:55:12;4.80;;;4.03;;
4957;SDS011;2494;51.872;9.688;2023-03-12T08:57:57;5.37;;;4.60;;
4957;SDS011;2494;51.872;9.688;2023-03-12T09:00:42;4.80;;;3.30;;
4957;SDS011;2494;51.872;9.688;2023-03-12T09:03:29;4.80;;;3.70;;
4957;SDS011;2494;51.872;9.688;2023-03-12T09:06:14;9.80;;;6.03;;
4957;SDS011;2494;51.872;9.688;2023-03-12T09:08:59;7.60;;;5.50;;
4957;SDS011;2494;51.872;9.688;2023-03-12T09:11:49;5.57;;;5.07;;
4957;SDS011;2494;51.872;9.688;2023-03-12T09:14:35;4.10;;;3.63;;
4957;SDS011;2494;51.872;9.688;2023-03-12T09:17:20;4.80;;;3.57;;
4957;SDS011;2494;51.872;9.688;2023-03-12T09:20:09;4.67;;;3.37;;
4957;SDS011;2494;51.872;9.688;2023-03-12T09:22:56;6.00;;;3.60;;
4957;SDS011;2494;51.872;9.688;2023-03-12T09:25:43;4.30;;;3.90;;
4957;SDS011;2494;51.872;9.688;2023-03-12T09:28:29;3.77;;;3.47;;
4957;SDS011;2494;51.872;9.688;2023-03-12T09:31:15;4.23;;;3.30;;
4957;SDS011;2494;51.872;9.688;2023-03-12T09:34:00;3.30;;;2.90;;
4957;SDS011;2494;51.872;9.688;2023-03-12T09:36:47;5.13;;;4.00;;
4957;SDS011;2494;51.872;9.688;2023-03-12T09:39:32;5.73;;;3.37;;
4957;SDS011;2494;51.872;9.688;2023-03-12T09:42:20;8.33;;;3.10;;
4957;SDS011;2494;51.872;9.688;2023-03-12T09:45:07;3.33;;;3.03;;
4957;SDS011;2494;51.872;9.688;2023-03-12T09:47:53;3.90;;;2.83;;
4957;SDS011;2494;51.872;9.688;2023-03-12T09:50:40;9.83;;;4.03;;
4957;SDS011;2494;51.872;9.688;2023-03-12T09:53:29;9.73;;;3.83;;
4957;SDS011;2494;51.872;9.688;2023-03-12T09:56:16;6.00;;;4.70;;
4957;SDS011;2494;51.872;9.688;2023-03-12T09:59:01;5.57;;;3.30;;
4957;SDS011;2494;51.872;9.688;2023-03-12T10:01:48;4.73;;;3.40;;
4957;SDS011;2494;51.872;9.688;2023-03-12T10:04:37;3.67;;;3.37;;
4957;SDS011;2494;51.872;9.688;2023-03-12T10:07:25;2.70;;;2.17;;
4957;SDS011;2494;51.872;9.688;2023-03-12T10:13:22;5.93;;;2.20;;
4957;SDS011;2494;51.872;9.688;2023-03-12T10:16:15;4.53;;;2.53;;
4957;SDS011;2494;51.872;9.688;2023-03-12T10:19:17;4.63;;;1.80;;
4957;SDS011;2494;51.872;9.688;2023-03-12T10:22:12;3.07;;;2.80;;
4957;SDS011;2494;51.872;9.688;2023-03-12T10:25:00;3.13;;;2.00;;
4957;SDS011;2494;51.872;9.688;2023-03-12T10:27:49;2.50;;;2.30;;
4957;SDS011;2494;51.872;9.688;2023-03-12T10:30:36;3.13;;;2.43;;
4957;SDS011;2494;51.872;9.688;2023-03-12T10:33:27;4.30;;;2.10;;
4957;SDS011;2494;51.872;9.688;2023-03-12T10:36:18;4.43;;;2.13;;
4957;SDS011;2494;51.872;9.688;2023-03-12T10:39:05;6.97;;;2.67;;
4957;SDS011;2494;51.872;9.688;2023-03-12T10:41:54;17.63;;;2.20;;
4957;SDS011;2494;51.872;9.688;2023-03-12T10:44:41;3.13;;;2.53;;
4957;SDS011;2494;51.872;9.688;2023-03-12T10:50:29;3.43;;;2.83;;
4957;SDS011;2494;51.872;9.688;2023-03-12T10:53:19;4.33;;;2.20;;
4957;SDS011;2494;51.872;9.688;2023-03-12T10:56:05;3.37;;;2.60;;
4957;SDS011;2494;51.872;9.688;2023-03-12T10:58:51;3.50;;;3.20;;
4957;SDS011;2494;51.872;9.688;2023-03-12T11:01:51;5.00;;;3.23;;
4957;SDS011;2494;51.872;9.688;2023-03-12T11:04:39;7.90;;;7.30;;
4957;SDS011;2494;51.872;9.688;2023-03-12T11:07:28;8.27;;;7.47;;
4957;SDS011;2494;51.872;9.688;2023-03-12T11:10:18;6.43;;;3.63;;
4957;SDS011;2494;51.872;9.688;2023-03-12T11:13:04;3.33;;;3.00;;
4957;SDS011;2494;51.872;9.688;2023-03-12T11:15:50;3.70;;;3.40;;
4957;SDS011;2494;51.872;9.688;2023-03-12T11:18:36;3.80;;;3.27;;
4957;SDS011;2494;51.872;9.688;2023-03-12T11:21:23;6.13;;;3.30;;
4957;SDS011;2494;51.872;9.688;2023-03-12T11:24:10;3.23;;;2.93;;
4957;SDS011;2494;51.872;9.688;2023-03-12T11:26:56;5.07;;;2.93;;
4957;SDS011;2494;51.872;9.688;2023-03-12T11:29:44;3.50;;;3.03;;
4957;SDS011;2494;51.872;9.688;2023-03-12T11:32:33;6.70;;;5.53;;
4957;SDS011;2494;51.872;9.688;2023-03-12T11:35:20;8.10;;;3.90;;
4957;SDS011;2494;51.872;9.688;2023-03-12T11:38:14;4.63;;;4.23;;
4957;SDS011;2494;51.872;9.688;2023-03-12T11:41:05;4.30;;;4.03;;
4957;SDS011;2494;51.872;9.688;2023-03-12T11:43:56;4.93;;;4.30;;
4957;SDS011;2494;51.872;9.688;2023-03-12T11:46:49;4.20;;;3.80;;
4957;SDS011;2494;51.872;9.688;2023-03-12T11:49:40;5.80;;;3.60;;
4957;SDS011;2494;51.872;9.688;2023-03-12T11:52:30;7.13;;;4.63;;
4957;SDS011;2494;51.872;9.688;2023-03-12T11:55:19;3.70;;;3.40;;
4957;SDS011;2494;51.872;9.688;2023-03-12T11:58:15;5.73;;;5.27;;
4957;SDS011;2494;51.872;9.688;2023-03-12T12:01:04;4.80;;;4.50;;
4957;SDS011;2494;51.872;9.688;2023-03-12T12:07:07;5.90;;;5.40;;
4957;SDS011;2494;51.872;9.688;2023-03-12T12:09:56;5.17;;;3.70;;
4957;SDS011;2494;51.872;9.688;2023-03-12T12:12:46;4.87;;;4.40;;
4957;SDS011;2494;51.872;9.688;2023-03-12T12:15:38;4.30;;;4.03;;
4957;SDS011;2494;51.872;9.688;2023-03-12T12:18:30;4.37;;;3.97;;
4957;SDS011;2494;51.872;9.688;2023-03-12T12:21:23;5.57;;;5.07;;
4957;SDS011;2494;51.872;9.688;2023-03-12T12:24:16;6.93;;;4.03;;
4957;SDS011;2494;51.872;9.688;2023-03-12T12:27:05;8.40;;;6.70;;
4957;SDS011;2494;51.872;9.688;2023-03-12T12:29:58;4.43;;;4.03;;
4957;SDS011;2494;51.872;9.688;2023-03-12T12:32:58;9.80;;;7.27;;
4957;SDS011;2494;51.872;9.688;2023-03-12T12:35:45;6.80;;;4.57;;
4957;SDS011;2494;51.872;9.688;2023-03-12T12:38:31;7.00;;;6.30;;
4957;SDS011;2494;51.872;9.688;2023-03-12T12:41:19;6.20;;;5.67;;
4957;SDS011;2494;51.872;9.688;2023-03-12T12:44:05;7.07;;;6.30;;
4957;SDS011;2494;51.872;9.688;2023-03-12T12:46:54;8.37;;;6.90;;
4957;SDS011;2494;51.872;9.688;2023-03-12T12:49:45;4.93;;;4.53;;
4957;SDS011;2494;51.872;9.688;2023-03-12T12:52:31;5.30;;;4.90;;
4957;SDS011;2494;51.872;9.688;2023-03-12T12:55:18;5.97;;;5.30;;
4957;SDS011;2494;51.872;9.688;2023-03-12T12:58:06;5.90;;;5.40;;
4957;SDS011;2494;51.872;9.688;2023-03-12T13:00:56;6.53;;;6.00;;
4957;SDS011;2494;51.872;9.688;2023-03-12T13:03:41;6.23;;;5.87;;
4957;SDS011;2494;51.872;9.688;2023-03-12T13:06:30;5.53;;;5.07;;
4957;SDS011;2494;51.872;9.688;2023-03-12T13:09:37;7.20;;;6.60;;
4957;SDS011;2494;51.872;9.688;2023-03-12T13:12:28;13.60;;;7.10;;
4957;SDS011;2494;51.872;9.688;2023-03-12T13:15:37;5.93;;;4.90;;
4957;SDS011;2494;51.872;9.688;2023-03-12T13:18:27;5.07;;;4.77;;
4957;SDS011;2494;51.872;9.688;2023-03-12T13:21:17;6.03;;;5.63;;
4957;SDS011;2494;51.872;9.688;2023-03-12T13:24:08;6.77;;;6.20;;
4957;SDS011;2494;51.872;9.688;2023-03-12T13:26:56;4.43;;;4.03;;
4957;SDS011;2494;51.872;9.688;2023-03-12T13:29:43;6.90;;;6.50;;
4957;SDS011;2494;51.872;9.688;2023-03-12T13:32:35;12.43;;;11.33;;
4957;SDS011;2494;51.872;9.688;2023-03-12T13:35:28;9.27;;;8.47;;
4957;SDS011;2494;51.872;9.688;2023-03-12T13:38:17;11.33;;;10.33;;
4957;SDS011;2494;51.872;9.688;2023-03-12T13:41:29;8.37;;;7.70;;
4957;SDS011;2494;51.872;9.688;2023-03-12T13:44:22;5.77;;;5.37;;
4957;SDS011;2494;51.872;9.688;2023-03-12T13:47:16;5.50;;;5.00;;
4957;SDS011;2494;51.872;9.688;2023-03-12T13:50:05;7.00;;;5.13;;
4957;SDS011;2494;51.872;9.688;2023-03-12T13:52:56;5.20;;;4.80;;
4957;SDS011;2494;51.872;9.688;2023-03-12T13:55:44;6.73;;;6.33;;
4957;SDS011;2494;51.872;9.688;2023-03-12T13:58:39;7.60;;;7.03;;
4957;SDS011;2494;51.872;9.688;2023-03-12T14:01:25;4.50;;;4.17;;
4957;SDS011;2494;51.872;9.688;2023-03-12T14:04:14;4.60;;;4.30;;
4957;SDS011;2494;51.872;9.688;2023-03-12T14:07:06;6.07;;;5.00;;
4957;SDS011;2494;51.872;9.688;2023-03-12T14:10:00;6.47;;;5.97;;
4957;SDS011;2494;51.872;9.688;2023-03-12T14:12:50;4.80;;;4.40;;
4957;SDS011;2494;51.872;9.688;2023-03-12T14:15:41;6.20;;;5.60;;
4957;SDS011;2494;51.872;9.688;2023-03-12T14:18:28;6.40;;;5.87;;
4957;SDS011;2494;51.872;9.688;2023-03-12T14:21:16;5.20;;;4.90;;
4957;SDS011;2494;51.872;9.688;2023-03-12T14:24:02;5.30;;;4.90;;
4957;SDS011;2494;51.872;9.688;2023-03-12T14:26:50;5.43;;;5.03;;
4957;SDS011;2494;51.872;9.688;2023-03-12T14:29:36;6.10;;;5.50;;
4957;SDS011;2494;51.872;9.688;2023-03-12T14:32:24;8.00;;;6.10;;
4957;SDS011;2494;51.872;9.688;2023-03-12T14:35:15;9.60;;;8.67;;
4957;SDS011;2494;51.872;9.688;2023-03-12T14:38:02;8.10;;;7.50;;
4957;SDS011;2494;51.872;9.688;2023-03-12T14:40:50;8.00;;;7.30;;
4957;SDS011;2494;51.872;9.688;2023-03-12T14:43:36;7.77;;;6.87;;
4957;SDS011;2494;51.872;9.688;2023-03-12T14:46:22;8.90;;;8.00;;
4957;SDS011;2494;51.872;9.688;2023-03-12T14:49:13;7.83;;;7.00;;
4957;SDS011;2494;51.872;9.688;2023-03-12T14:52:03;9.40;;;8.23;;
4957;SDS011;2494;51.872;9.688;2023-03-12T14:54:52;10.93;;;9.87;;
4957;SDS011;2494;51.872;9.688;2023-03-12T14:57:38;9.50;;;8.77;;
4957;SDS011;2494;51.872;9.688;2023-03-12T15:00:24;10.27;;;9.00;;
4957;SDS011;2494;51.872;9.688;2023-03-12T15:03:11;15.17;;;8.90;;
4957;SDS011;2494;51.872;9.688;2023-03-12T15:05:59;8.27;;;7.30;;
4957;SDS011;2494;51.872;9.688;2023-03-12T15:08:45;11.80;;;9.77;;
4957;SDS011;2494;51.872;9.688;2023-03-12T15:11:32;8.47;;;7.73;;
4957;SDS011;2494;51.872;9.688;2023-03-12T15:14:20;10.57;;;9.60;;
4957;SDS011;2494;51.872;9.688;2023-03-12T15:17:07;9.17;;;8.20;;
4957;SDS011;2494;51.872;9.688;2023-03-12T15:19:52;10.43;;;8.77;;
4957;SDS011;2494;51.872;9.688;2023-03-12T15:22:41;9.30;;;8.50;;
4957;SDS011;2494;51.872;9.688;2023-03-12T15:25:28;9.13;;;8.40;;
4957;SDS011;2494;51.872;9.688;2023-03-12T15:28:25;11.30;;;10.20;;
4957;SDS011;2494;51.872;9.688;2023-03-12T15:31:11;9.17;;;8.33;;
4957;SDS011;2494;51.872;9.688;2023-03-12T15:34:00;11.17;;;8.70;;
4957;SDS011;2494;51.872;9.688;2023-03-12T15:36:46;9.47;;;8.47;;
4957;SDS011;2494;51.872;9.688;2023-03-12T15:39:34;10.17;;;9.17;;
4957;SDS011;2494;51.872;9.688;2023-03-12T15:42:20;9.77;;;8.77;;
4957;SDS011;2494;51.872;9.688;2023-03-12T15:45:13;7.47;;;6.87;;
4957;SDS011;2494;51.872;9.688;2023-03-12T15:48:00;11.17;;;10.17;;
4957;SDS011;2494;51.872;9.688;2023-03-12T15:50:47;8.80;;;7.90;;
4957;SDS011;2494;51.872;9.688;2023-03-12T15:53:33;9.57;;;8.30;;
4957;SDS011;2494;51.872;9.688;2023-03-12T15:56:21;10.00;;;9.10;;
4957;SDS011;2494;51.872;9.688;2023-03-12T15:59:18;8.03;;;7.40;;
4957;SDS011;2494;51.872;9.688;2023-03-12T16:02:08;8.40;;;7.60;;
4957;SDS011;2494;51.872;9.688;2023-03-12T16:04:55;8.00;;;7.40;;
4957;SDS011;2494;51.872;9.688;2023-03-12T16:07:40;7.87;;;7.17;;
4957;SDS011;2494;51.872;9.688;2023-03-12T16:10:26;7.83;;;7.13;;
4957;SDS011;2494;51.872;9.688;2023-03-12T16:13:14;7.10;;;6.50;;
4957;SDS011;2494;51.872;9.688;2023-03-12T16:16:00;7.60;;;6.90;;
4957;SDS011;2494;51.872;9.688;2023-03-12T16:18:45;8.87;;;6.10;;
4957;SDS011;2494;51.872;9.688;2023-03-12T16:21:30;6.20;;;5.70;;
4957;SDS011;2494;51.872;9.688;2023-03-12T16:24:16;6.30;;;5.83;;
4957;SDS011;2494;51.872;9.688;2023-03-12T16:27:01;6.90;;;6.20;;
4957;SDS011;2494;51.872;9.688;2023-03-12T16:29:49;8.43;;;7.63;;
4957;SDS011;2494;51.872;9.688;2023-03-12T16:32:34;8.87;;;8.17;;
4957;SDS011;2494;51.872;9.688;2023-03-12T16:35:19;15.03;;;12.80;;
4957;SDS011;2494;51.872;9.688;2023-03-12T16:38:08;13.10;;;11.90;;
4957;SDS011;2494;51.872;9.688;2023-03-12T16:40:53;8.73;;;7.97;;
4957;SDS011;2494;51.872;9.688;2023-03-12T16:43:39;11.40;;;10.33;;
4957;SDS011;2494;51.872;9.688;2023-03-12T16:46:27;7.13;;;6.43;;
4957;SDS011;2494;51.872;9.688;2023-03-12T16:49:15;7.67;;;6.97;;
4957;SDS011;2494;51.872;9.688;2023-03-12T16:52:11;7.83;;;7.20;;
4957;SDS011;2494;51.872;9.688;2023-03-12T16:54:58;7.03;;;6.43;;
4957;SDS011;2494;51.872;9.688;2023-03-12T16:57:43;8.37;;;7.50;;
4957;SDS011;2494;51.872;9.688;2023-03-12T17:00:29;9.53;;;8.60;;
4957;SDS011;2494;51.872;9.688;2023-03-12T17:03:19;9.20;;;8.27;;
4957;SDS011;2494;51.872;9.688;2023-03-12T17:06:06;13.27;;;10.63;;
4957;SDS011;2494;51.872;9.688;2023-03-12T17:08:52;8.47;;;7.37;;
4957;SDS011;2494;51.872;9.688;2023-03-12T17:11:37;11.97;;;9.80;;
4957;SDS011;2494;51.872;9.688;2023-03-12T17:14:23;10.20;;;9.20;;
4957;SDS011;2494;51.872;9.688;2023-03-12T17:17:08;7.73;;;7.03;;
4957;SDS011;2494;51.872;9.688;2023-03-12T17:19:55;10.03;;;9.03;;
4957;SDS011;2494;51.872;9.688;2023-03-12T17:22:42;8.00;;;7.30;;
4957;SDS011;2494;51.872;9.688;2023-03-12T17:25:28;10.87;;;9.13;;
4957;SDS011;2494;51.872;9.688;2023-03-12T17:28:14;11.47;;;9.90;;